Data for 10/01/2009

Time Sea-Level Adjusted Pressure Absolute Pressure Temperature Relative Humidity Dew Point   
(mb) (inHg) (mb) (inHg) (C) (F) (%) (C) (F)
00:05 1021 30.15 850 25.1 1.7 35 90 0.2 32.4
00:10 1021 30.15 850 25.1 1.6 34.9 90 0.2 32.3
00:15 1021 30.15 850 25.1 1.5 34.7 90 0.1 32.1
00:20 1021 30.15 850 25.1 1.5 34.7 90 0 32
00:25 1021 30.15 850 25.1 1.6 34.9 89 0.1 32.1
00:30 1021 30.15 850 25.1 1.7 35.1 88 -0 32
00:35 1021 30.15 850 25.1 1.8 35.2 89 0.1 32.2
00:40 1021 30.15 850 25.1 1.8 35.3 88 0.1 32.1
00:45 1021 30.15 850 25.1 1.8 35.3 88 0.1 32.2
00:50 1021 30.15 850 25.1 1.9 35.4 88 0.1 32.2
00:55 1021 30.15 850 25.1 1.9 35.4 87 -0 32
01:00 1021 30.15 851 25.13 2 35.6 88 0.2 32.4
01:05 1021 30.15 851 25.13 1.9 35.4 89 0.3 32.6
01:10 1021 30.15 851 25.13 1.7 35.1 90 0.2 32.4
01:15 1021 30.15 851 25.13 1.6 35 90 0.2 32.4
01:20 1022 30.18 851 25.13 1.7 35.1 89 0.1 32.2
01:25 1022 30.18 851 25.13 1.9 35.5 87 0 32
01:30 1022 30.18 851 25.13 2.1 35.7 84 -0.3 31.5
01:35 1022 30.18 851 25.13 2.1 35.7 84 -0.3 31.5
01:40 1022 30.18 851 25.13 2.1 35.8 83 -0.5 31.2
01:45 1022 30.18 851 25.13 2.1 35.8 83 -0.4 31.2
01:50 1022 30.18 851 25.13 2.1 35.7 81 -0.8 30.6
01:55 1022 30.18 851 25.13 2.1 35.8 81 -0.8 30.6
02:00 1022 30.18 851 25.13 2.1 35.7 81 -0.9 30.5
02:05 1022 30.18 851 25.13 2 35.7 81 -0.9 30.3
02:10 1022 30.18 851 25.13 2 35.6 80 -1.1 29.9
02:15 1022 30.18 851 25.13 2 35.6 79 -1.3 29.6
02:20 1022 30.18 851 25.13 1.9 35.5 81 -1.1 30.1
02:25 1022 30.18 851 25.13 1.9 35.5 80 -1.2 29.9
02:30 1022 30.18 851 25.13 2 35.6 80 -1.2 29.9
02:35 1022 30.18 851 25.13 2 35.5 78 -1.4 29.4
02:40 1022 30.18 851 25.13 1.9 35.5 78 -1.5 29.4
02:45 1022 30.18 851 25.13 1.9 35.5 77 -1.6 29.1
02:50 1022 30.18 851 25.13 1.9 35.5 76 -1.9 28.6
02:55 1022 30.18 851 25.13 1.9 35.5 77 -1.7 28.9
03:00 1022 30.18 851 25.13 1.9 35.4 76 -1.9 28.7
03:05 1022 30.18 851 25.13 1.9 35.5 75 -2 28.4
03:10 1022 30.18 851 25.13 1.9 35.5 76 -1.9 28.7
03:15 1022 30.18 851 25.13 1.9 35.4 76 -1.9 28.5
03:20 1022 30.18 851 25.13 1.9 35.4 77 -1.8 28.8
03:25 1022 30.18 851 25.13 1.9 35.3 78 -1.5 29.2
03:30 1022 30.18 852 25.16 1.7 35.1 79 -1.6 29.2
03:35 1022 30.18 852 25.16 1.6 34.8 78 -1.8 28.7
03:40 1022 30.18 852 25.16 1.5 34.7 78 -1.9 28.6
03:45 1022 30.18 852 25.16 1.6 34.9 77 -2 28.5
03:50 1022 30.18 852 25.16 1.7 35 77 -2 28.5
03:55 1022 30.18 852 25.16 1.7 35.1 76 -2.1 28.2
04:00 1022 30.18 852 25.16 1.8 35.2 75 -2.3 27.9
04:05 1022 30.18 852 25.16 1.7 35.1 74 -2.5 27.5
04:10 1023 30.21 852 25.16 1.7 35 74 -2.4 27.7
04:15 1023 30.21 852 25.16 1.7 35 73 -2.6 27.3
04:20 1023 30.21 852 25.16 1.7 35.1 71 -3 26.6
04:25 1023 30.21 852 25.16 1.8 35.2 71 -2.9 26.8
04:30 1023 30.21 852 25.16 1.8 35.3 70 -3 26.6
04:35 1023 30.21 852 25.16 1.8 35.2 72 -2.7 27.2
04:40 1023 30.21 852 25.16 1.7 35.1 72 -2.9 26.9
04:45 1023 30.21 852 25.16 1.7 35.1 71 -3.1 26.5
04:50 1023 30.21 852 25.16 1.7 35.1 71 -2.9 26.7
04:55 1023 30.21 852 25.16 1.8 35.2 70 -3 26.5
05:00 1023 30.21 852 25.16 1.8 35.2 70 -3.2 26.3
05:05 1023 30.21 852 25.16 1.7 35 69 -3.4 26
05:10 1023 30.21 852 25.16 1.6 34.9 70 -3.3 26.1
05:15 1023 30.21 852 25.16 1.6 35 70 -3.2 26.3
05:20 1023 30.21 852 25.16 1.6 34.9 71 -3.1 26.4
05:25 1023 30.21 852 25.16 1.7 35 70 -3.2 26.3
05:30 1023 30.21 852 25.16 1.7 35.1 72 -2.7 27.1
05:35 1023 30.21 852 25.16 1.7 35 74 -2.6 27.4
05:40 1023 30.21 852 25.16 1.6 34.9 72 -2.9 26.8
05:45 1023 30.21 852 25.16 1.7 35 72 -2.9 26.8
05:50 1023 30.21 852 25.16 1.7 35.1 71 -2.9 26.7
05:55 1023 30.21 852 25.16 1.7 35.1 71 -2.9 26.8
06:00 1023 30.21 852 25.16 1.7 35.1 71 -3 26.6
06:05 1023 30.21 852 25.16 1.6 34.9 73 -2.7 27.1
06:10 1023 30.21 852 25.16 1.6 34.8 74 -2.6 27.4
06:15 1023 30.21 852 25.16 1.5 34.7 74 -2.7 27.2
06:20 1023 30.21 852 25.16 1.5 34.7 74 -2.7 27.2
06:25 1023 30.21 852 25.16 1.5 34.7 73 -2.8 27
06:30 1023 30.21 852 25.16 1.6 35 70 -3.2 26.3
06:35 1023 30.21 852 25.16 1.8 35.2 71 -3 26.6
06:40 1023 30.21 852 25.16 1.8 35.3 68 -3.5 25.7
06:45 1023 30.21 852 25.16 1.9 35.5 68 -3.4 25.9
06:50 1023 30.21 852 25.16 2 35.6 66 -3.8 25.2
06:55 1023 30.21 852 25.16 2.1 35.8 65 -3.8 25.2
07:00 1023 30.21 852 25.16 2.2 35.9 64 -3.9 25
07:05 1023 30.21 852 25.16 2.2 35.9 65 -3.7 25.4
07:10 1023 30.21 852 25.16 2.2 35.9 65 -3.7 25.3
07:15 1023 30.21 852 25.16 2.1 35.8 66 -3.6 25.6
07:20 1023 30.21 852 25.16 2.1 35.8 67 -3.4 25.8
07:25 1023 30.21 852 25.16 2 35.7 68 -3.2 26.2
07:30 1023 30.21 852 25.16 1.9 35.4 68 -3.3 26
07:35 1023 30.21 852 25.16 2 35.5 68 -3.3 26.1
07:40 1023 30.21 852 25.16 2 35.6 69 -3.1 26.5
07:45 1023 30.21 852 25.16 2 35.5 69 -3.1 26.5
07:50 1023 30.21 853 25.19 2 35.7 68 -3.3 26.1
07:55 1023 30.21 853 25.19 2.1 35.8 67 -3.4 26
08:00 1023 30.21 853 25.19 2.1 35.9 68 -3.1 26.4
08:05 1023 30.21 853 25.19 2.2 35.9 68 -3.1 26.4
08:10 1023 30.21 853 25.19 2 35.5 70 -3 26.6
08:15 1024 30.24 853 25.19 1.8 35.3 70 -3 26.6
08:20 1024 30.24 853 25.19 1.8 35.3 68 -3.4 25.9
08:25 1024 30.24 853 25.19 1.9 35.5 69 -3.2 26.2
08:30 1024 30.24 853 25.19 2 35.6 69 -3.2 26.3
08:35 1024 30.24 853 25.19 2.1 35.8 67 -3.3 26
08:40 1024 30.24 853 25.19 2.1 35.9 68 -3.2 26.3
08:45 1024 30.24 853 25.19 2.3 36.2 65 -3.6 25.5
08:50 1024 30.24 853 25.19 2.4 36.4 65 -3.4 25.8
08:55 1024 30.24 853 25.19 2.6 36.7 64 -3.4 25.8
09:00 1024 30.24 853 25.19 2.7 36.8 66 -3 26.6
09:05 1024 30.24 853 25.19 2.4 36.3 67 -3.2 26.2
09:10 1024 30.24 853 25.19 2.6 36.7 64 -3.4 25.8
09:15 1024 30.24 853 25.19 2.6 36.7 65 -3.4 25.8
09:20 1024 30.24 853 25.19 2.8 37 66 -3 26.5
09:25 1024 30.24 853 25.19 3 37.4 65 -2.9 26.8
09:30 1024 30.24 853 25.19 3.1 37.6 62 -3.5 25.7
09:35 1024 30.24 853 25.19 3.4 38 62 -3.3 26
09:40 1024 30.24 853 25.19 3.4 38.1 59 -3.9 25.1
09:45 1024 30.24 853 25.19 3.4 38.1 59 -3.9 24.9
09:50 1024 30.24 853 25.19 3.3 37.9 60 -3.8 25.2
09:55 1024 30.24 853 25.19 3.4 38 60 -3.8 25.2
10:00 1024 30.24 853 25.19 3.4 38.1 59 -4 24.9
10:05 1024 30.24 853 25.19 3.4 38.1 61 -3.4 25.9
10:10 1024 30.24 853 25.19 3.5 38.3 62 -3.1 26.4
10:15 1024 30.24 853 25.19 3.5 38.3 61 -3.4 25.9
10:20 1024 30.24 853 25.19 3.4 38.1 57 -4.4 24.2
10:25 1024 30.24 853 25.19 3.4 38.1 58 -4 24.8
10:30 1024 30.24 853 25.19 3.5 38.3 57 -4.2 24.4
10:35 1024 30.24 853 25.19 3.5 38.4 57 -4.2 24.4
10:40 1024 30.24 853 25.19 3.5 38.4 57 -4.1 24.6
10:45 1024 30.24 853 25.19 3.6 38.4 56 -4.4 24.1
10:50 1024 30.24 853 25.19 3.6 38.4 57 -4.1 24.6
10:55 1024 30.24 853 25.19 3.6 38.5 55 -4.5 24
11:00 1024 30.24 853 25.19 3.7 38.7 56 -4.2 24.4
11:05 1024 30.24 853 25.19 3.8 38.9 54 -4.7 23.6
11:10 1024 30.24 853 25.19 3.8 38.9 53 -4.8 23.3
11:15 1024 30.24 853 25.19 3.9 39.1 53 -4.7 23.5
11:20 1024 30.24 853 25.19 3.7 38.7 55 -4.4 24.1
11:25 1024 30.24 853 25.19 3.6 38.6 60 -3.5 25.7
11:30 1024 30.24 853 25.19 3.4 38.2 63 -3 26.6
11:35 1024 30.24 853 25.19 3.4 38.2 62 -3.2 26.2
11:40 1024 30.24 853 25.19 3.6 38.5 60 -3.4 25.9
11:45 1024 30.24 853 25.19 3.7 38.6 57 -4.2 24.5
11:50 1024 30.24 853 25.19 3.7 38.7 57 -4.1 24.7
11:55 1024 30.24 853 25.19 3.6 38.5 62 -2.9 26.7
12:00 1024 30.24 853 25.19 3.1 37.6 63 -3.2 26.3
12:05 1023 30.21 853 25.19 3.1 37.7 64 -3.1 26.4
12:10 1023 30.21 853 25.19 3.4 38.1 62 -3.3 26.1
12:15 1023 30.21 853 25.19 3.5 38.3 61 -3.3 26
12:20 1023 30.21 853 25.19 3.5 38.2 60 -3.6 25.5
12:25 1023 30.21 853 25.19 3.6 38.4 59 -3.8 25.2
12:30 1023 30.21 853 25.19 4.2 39.6 52 -4.9 23.2
12:35 1023 30.21 853 25.19 4.6 40.3 46 -6.2 20.9
12:40 1023 30.21 853 25.19 4.8 40.6 46 -5.8 21.6
12:45 1023 30.21 852 25.16 4.7 40.5 49 -5.2 22.6
12:50 1023 30.21 852 25.16 4.9 40.8 52 -4.1 24.7
12:55 1023 30.21 852 25.16 4.7 40.4 47 -5.8 21.6
13:00 1023 30.21 852 25.16 4.7 40.5 45 -6.2 20.9
13:05 1023 30.21 852 25.16 4.7 40.4 49 -5.2 22.6
13:10 1023 30.21 852 25.16 5 40.9 47 -5.5 22
13:15 1023 30.21 852 25.16 4.8 40.6 47 -5.7 21.8
13:20 1023 30.21 852 25.16 4.8 40.6 48 -5.3 22.4
13:25 1023 30.21 852 25.16 4.9 40.8 45 -5.9 21.3
13:30 1023 30.21 852 25.16 4.9 40.9 45 -6 21.1
13:35 1023 30.21 852 25.16 5.4 41.8 42 -6.4 20.4
13:40 1023 30.21 852 25.16 6.1 42.9 41 -6.3 20.7
13:45 1023 30.21 852 25.16 5.8 42.4 42 -6.3 20.7
13:50 1022 30.18 852 25.16 6.5 43.8 38 -6.7 20
13:55 1022 30.18 852 25.16 6.3 43.3 39 -6.7 19.9
14:00 1022 30.18 851 25.13 6.2 43.2 38 -6.9 19.5
14:05 1022 30.18 851 25.13 6.1 43.1 37 -7.4 18.7
14:10 1022 30.18 851 25.13 5.8 42.4 40 -6.7 20
14:15 1022 30.18 851 25.13 6.1 42.9 38 -7.2 19.1
14:20 1022 30.18 851 25.13 6.1 42.9 39 -7 19.4
14:25 1022 30.18 851 25.13 6.3 43.3 39 -6.8 19.8
14:30 1022 30.18 851 25.13 6.3 43.4 42 -5.8 21.6
14:35 1022 30.18 851 25.13 6.5 43.8 38 -6.9 19.7
14:40 1022 30.18 851 25.13 6.8 44.2 35 -7.6 18.4
14:45 1022 30.18 851 25.13 6.5 43.8 39 -6.4 20.4
14:50 1022 30.18 851 25.13 6.9 44.3 40 -5.9 21.4
14:55 1022 30.18 851 25.13 6.7 44.1 37 -6.9 19.6
15:00 1022 30.18 851 25.13 6.2 43.2 39 -6.8 19.8
15:05 1022 30.18 851 25.13 6 42.9 39 -6.9 19.7
15:10 1022 30.18 851 25.13 6 42.7 38 -7.1 19.2
15:15 1022 30.18 851 25.13 5.8 42.4 42 -6.2 20.8
15:20 1022 30.18 851 25.13 5.8 42.5 42 -6 21.1
15:25 1022 30.18 851 25.13 5.6 42.1 41 -6.5 20.3
15:30 1022 30.18 851 25.13 5.8 42.4 42 -6.2 20.8
15:35 1022 30.18 851 25.13 6.3 43.4 40 -6.1 20.9
15:40 1022 30.18 851 25.13 6.1 42.9 43 -5.7 21.8
15:45 1022 30.18 851 25.13 5.7 42.3 45 -5.3 22.4
15:50 1022 30.18 851 25.13 5.8 42.4 44 -5.6 21.9
15:55 1022 30.18 851 25.13 5.8 42.4 41 -6.5 20.3
16:00 1022 30.18 851 25.13 5.7 42.3 43 -5.9 21.4
16:05 1022 30.18 851 25.13 5.8 42.5 42 -6.1 21
16:10 1022 30.18 851 25.13 5.8 42.5 43 -5.7 21.8
16:15 1022 30.18 851 25.13 5.9 42.6 42 -6.1 21
16:20 1022 30.18 851 25.13 5.8 42.4 42 -6.1 21.1
16:25 1022 30.18 851 25.13 5.7 42.3 44 -5.4 22.2
16:30 1022 30.18 851 25.13 5.8 42.4 43 -5.8 21.5
16:35 1022 30.18 851 25.13 5.9 42.6 42 -6.1 21
16:40 1022 30.18 851 25.13 5.9 42.7 43 -5.8 21.5
16:45 1022 30.18 851 25.13 5.8 42.5 43 -5.8 21.5
16:50 1022 30.18 851 25.13 5.8 42.4 44 -5.6 21.9
16:55 1022 30.18 851 25.13 5.7 42.2 44 -5.7 21.7
17:00 1022 30.18 851 25.13 5.7 42.3 42 -6.2 20.8
17:05 1022 30.18 851 25.13 5.7 42.3 42 -6.2 20.8
17:10 1022 30.18 851 25.13 5.8 42.5 42 -6 21.2
17:15 1022 30.18 851 25.13 5.6 42.1 44 -5.8 21.6
17:20 1022 30.18 851 25.13 5.5 42 44 -5.6 21.9
17:25 1022 30.18 851 25.13 5.4 41.7 46 -5.2 22.7
17:30 1022 30.18 851 25.13 5.3 41.6 48 -4.7 23.5
17:35 1022 30.18 851 25.13 5.3 41.5 49 -4.7 23.6
17:40 1022 30.18 851 25.13 5.2 41.4 49 -4.6 23.8
17:45 1022 30.18 851 25.13 5 41 49 -4.9 23.2
17:50 1022 30.18 851 25.13 5.2 41.4 48 -4.9 23.2
17:55 1022 30.18 851 25.13 5.3 41.5 45 -5.8 21.6
18:00 1022 30.18 851 25.13 5.3 41.6 44 -5.8 21.5
18:05 1022 30.18 851 25.13 5.3 41.5 47 -5.1 22.7
18:10 1022 30.18 851 25.13 5.2 41.3 48 -4.9 23.2
18:15 1022 30.18 851 25.13 5 41.1 48 -5 22.9
18:20 1022 30.18 851 25.13 5 41 48 -5.1 22.8
18:25 1022 30.18 851 25.13 5 40.9 48 -5.1 22.8
18:30 1022 30.18 851 25.13 4.9 40.9 49 -5 23
18:35 1022 30.18 851 25.13 4.8 40.7 48 -5.3 22.4
18:40 1022 30.18 851 25.13 4.8 40.6 47 -5.6 21.9
18:45 1022 30.18 851 25.13 4.7 40.5 48 -5.3 22.4
18:50 1022 30.18 851 25.13 4.7 40.4 49 -5.1 22.8
18:55 1022 30.18 851 25.13 4.6 40.4 50 -4.9 23.2
19:00 1022 30.18 851 25.13 4.6 40.3 51 -4.7 23.6
19:05 1022 30.18 851 25.13 4.5 40 50 -5 23.1
19:10 1022 30.18 851 25.13 4.5 40.1 50 -5.1 22.8
19:15 1022 30.18 851 25.13 4.5 40 51 -4.8 23.3
19:20 1022 30.18 851 25.13 4.4 40 51 -4.8 23.4
19:25 1022 30.18 851 25.13 4.3 39.7 53 -4.6 23.8
19:30 1022 30.18 851 25.13 4.1 39.5 55 -4.2 24.4
19:35 1022 30.18 851 25.13 4 39.3 55 -4.2 24.4
19:40 1022 30.18 851 25.13 3.9 39 56 -4.1 24.7
19:45 1022 30.18 851 25.13 3.8 38.8 57 -4.1 24.7
19:50 1022 30.18 851 25.13 3.7 38.6 58 -3.8 25.1
19:55 1022 30.18 852 25.16 3.6 38.4 59 -3.7 25.3
20:00 1022 30.18 851 25.13 3.6 38.4 57 -4.1 24.6
20:05 1022 30.18 851 25.13 3.8 38.9 55 -4.3 24.3
20:10 1022 30.18 851 25.13 3.9 39 55 -4.4 24.1
20:15 1022 30.18 851 25.13 3.9 39.1 55 -4.3 24.3
20:20 1022 30.18 851 25.13 3.8 38.9 56 -4.1 24.6
20:25 1022 30.18 851 25.13 3.7 38.7 57 -3.9 24.9
20:30 1022 30.18 851 25.13 3.8 38.8 56 -4.1 24.5
20:35 1022 30.18 851 25.13 3.9 38.9 55 -4.3 24.3
20:40 1022 30.18 852 25.16 3.9 39 56 -4.2 24.5
20:45 1022 30.18 852 25.16 3.9 39.1 55 -4.3 24.2
20:50 1022 30.18 852 25.16 4 39.2 54 -4.4 24
20:55 1022 30.18 852 25.16 4 39.3 55 -4.2 24.4
21:00 1022 30.18 851 25.13 4 39.1 56 -4 24.7
21:05 1022 30.18 852 25.16 4 39.1 56 -4 24.8
21:10 1022 30.18 852 25.16 3.9 39.1 57 -3.7 25.3
21:15 1022 30.18 852 25.16 3.9 39.1 57 -3.8 25.1
21:20 1022 30.18 851 25.13 4 39.1 57 -3.8 25.1
21:25 1022 30.18 851 25.13 4 39.1 59 -3.3 26
21:30 1022 30.18 851 25.13 3.8 38.8 61 -3.1 26.5
21:35 1022 30.18 851 25.13 3.6 38.5 63 -2.8 26.9
21:40 1022 30.18 851 25.13 3.5 38.3 62 -3.1 26.4
21:45 1022 30.18 851 25.13 3.6 38.5 61 -3.1 26.4
21:50 1022 30.18 851 25.13 3.6 38.5 61 -3.2 26.3
21:55 1022 30.18 851 25.13 3.6 38.5 60 -3.3 26
22:00 1022 30.18 851 25.13 3.7 38.7 59 -3.5 25.7
22:05 1022 30.18 851 25.13 3.8 38.8 58 -3.7 25.3
22:10 1022 30.18 851 25.13 3.9 39 58 -3.6 25.5
22:15 1022 30.18 851 25.13 3.8 38.9 57 -3.8 25.1
22:20 1022 30.18 851 25.13 3.9 39.1 57 -3.7 25.4
22:25 1022 30.18 851 25.13 4 39.2 58 -3.6 25.5
22:30 1022 30.18 851 25.13 3.9 39 58 -3.6 25.5
22:35 1022 30.18 851 25.13 3.9 39.1 58 -3.5 25.7
22:40 1022 30.18 851 25.13 3.9 39 59 -3.3 26.1
22:45 1022 30.18 851 25.13 3.8 38.9 60 -3.2 26.2
22:50 1022 30.18 851 25.13 3.7 38.7 61 -3.1 26.4
22:55 1022 30.18 851 25.13 3.7 38.6 60 -3.3 26.1
23:00 1022 30.18 851 25.13 3.8 38.8 59 -3.5 25.6
23:05 1022 30.18 851 25.13 3.8 38.9 58 -3.6 25.5
23:10 1022 30.18 851 25.13 3.8 38.9 59 -3.4 25.8
23:15 1022 30.18 852 25.16 3.7 38.7 61 -3.1 26.4
23:20 1022 30.18 852 25.16 3.6 38.5 63 -2.8 27
23:25 1022 30.18 852 25.16 3.4 38.2 63 -3 26.7
23:30 1022 30.18 852 25.16 3.5 38.2 62 -3.1 26.4
23:35 1022 30.18 852 25.16 3.5 38.3 63 -2.8 26.9
23:40 1022 30.18 851 25.13 3.5 38.3 63 -2.8 26.9
23:45 1022 30.18 851 25.13 3.5 38.4 63 -2.9 26.7
23:50 1022 30.18 851 25.13 3.6 38.5 61 -3.2 26.2
23:55 1022 30.18 851 25.13 3.7 38.7 60 -3.4 25.9
24:00 1022 30.18 851 25.13 3.9 39 59 -3.3 26.1